sensor_id;sensor_type;location;lat;lon;timestamp;P1;durP1;ratioP1;P2;durP2;ratioP2
1320;SDS011;653;51.480;11.992;2023-04-12T00:00:07;7.77;;;5.33;;
1320;SDS011;653;51.480;11.992;2023-04-12T00:02:38;7.43;;;5.90;;
1320;SDS011;653;51.480;11.992;2023-04-12T00:05:05;10.13;;;6.20;;
1320;SDS011;653;51.480;11.992;2023-04-12T00:07:33;7.67;;;5.50;;
1320;SDS011;653;51.480;11.992;2023-04-12T00:10:00;13.87;;;6.23;;
1320;SDS011;653;51.480;11.992;2023-04-12T00:12:27;7.27;;;5.30;;
1320;SDS011;653;51.480;11.992;2023-04-12T00:14:52;10.70;;;5.83;;
1320;SDS011;653;51.480;11.992;2023-04-12T00:17:18;8.87;;;5.90;;
1320;SDS011;653;51.480;11.992;2023-04-12T00:19:45;9.13;;;6.60;;
1320;SDS011;653;51.480;11.992;2023-04-12T00:22:13;8.53;;;6.03;;
1320;SDS011;653;51.480;11.992;2023-04-12T00:24:40;7.83;;;5.90;;
1320;SDS011;653;51.480;11.992;2023-04-12T00:27:06;8.60;;;5.23;;
1320;SDS011;653;51.480;11.992;2023-04-12T00:29:33;7.20;;;5.63;;
1320;SDS011;653;51.480;11.992;2023-04-12T00:31:58;9.23;;;6.03;;
1320;SDS011;653;51.480;11.992;2023-04-12T00:34:27;6.73;;;5.30;;
1320;SDS011;653;51.480;11.992;2023-04-12T00:36:53;7.77;;;5.57;;
1320;SDS011;653;51.480;11.992;2023-04-12T00:39:21;8.40;;;5.40;;
1320;SDS011;653;51.480;11.992;2023-04-12T00:41:48;7.93;;;6.30;;
1320;SDS011;653;51.480;11.992;2023-04-12T00:44:14;7.50;;;6.43;;
1320;SDS011;653;51.480;11.992;2023-04-12T00:46:46;8.57;;;5.77;;
1320;SDS011;653;51.480;11.992;2023-04-12T00:49:13;8.97;;;6.40;;
1320;SDS011;653;51.480;11.992;2023-04-12T00:51:41;8.10;;;6.13;;
1320;SDS011;653;51.480;11.992;2023-04-12T00:54:08;8.90;;;5.70;;
1320;SDS011;653;51.480;11.992;2023-04-12T00:56:37;9.40;;;5.63;;
1320;SDS011;653;51.480;11.992;2023-04-12T00:59:05;7.20;;;6.00;;
1320;SDS011;653;51.480;11.992;2023-04-12T01:01:33;9.57;;;5.13;;
1320;SDS011;653;51.480;11.992;2023-04-12T01:04:01;10.97;;;6.20;;
1320;SDS011;653;51.480;11.992;2023-04-12T01:12:35;8.77;;;5.37;;
1320;SDS011;653;51.480;11.992;2023-04-12T01:15:05;8.50;;;6.07;;
1320;SDS011;653;51.480;11.992;2023-04-12T01:17:34;7.40;;;5.00;;
1320;SDS011;653;51.480;11.992;2023-04-12T01:20:26;8.87;;;6.00;;
1320;SDS011;653;51.480;11.992;2023-04-12T01:26:08;8.40;;;5.10;;
1320;SDS011;653;51.480;11.992;2023-04-12T01:29:01;7.50;;;5.60;;
1320;SDS011;653;51.480;11.992;2023-04-12T01:31:35;8.90;;;5.33;;
1320;SDS011;653;51.480;11.992;2023-04-12T01:34:02;7.50;;;6.00;;
1320;SDS011;653;51.480;11.992;2023-04-12T01:36:30;9.23;;;5.87;;
1320;SDS011;653;51.480;11.992;2023-04-12T01:38:58;7.67;;;6.20;;
1320;SDS011;653;51.480;11.992;2023-04-12T01:41:24;5.97;;;5.37;;
1320;SDS011;653;51.480;11.992;2023-04-12T01:43:51;9.47;;;6.90;;
1320;SDS011;653;51.480;11.992;2023-04-12T01:46:17;8.70;;;6.20;;
1320;SDS011;653;51.480;11.992;2023-04-12T01:48:46;8.47;;;5.47;;
1320;SDS011;653;51.480;11.992;2023-04-12T01:51:26;8.57;;;6.10;;
1320;SDS011;653;51.480;11.992;2023-04-12T01:54:21;8.13;;;5.53;;
1320;SDS011;653;51.480;11.992;2023-04-12T01:57:03;10.13;;;5.90;;
1320;SDS011;653;51.480;11.992;2023-04-12T01:59:38;7.83;;;5.63;;
1320;SDS011;653;51.480;11.992;2023-04-12T02:02:05;7.90;;;5.83;;
1320;SDS011;653;51.480;11.992;2023-04-12T02:04:33;6.63;;;5.20;;
1320;SDS011;653;51.480;11.992;2023-04-12T02:07:00;9.70;;;5.70;;
1320;SDS011;653;51.480;11.992;2023-04-12T02:09:26;7.57;;;5.63;;
1320;SDS011;653;51.480;11.992;2023-04-12T02:11:53;8.00;;;5.50;;
1320;SDS011;653;51.480;11.992;2023-04-12T02:14:21;9.10;;;5.63;;
1320;SDS011;653;51.480;11.992;2023-04-12T02:16:49;8.80;;;5.80;;
1320;SDS011;653;51.480;11.992;2023-04-12T02:19:15;9.13;;;5.67;;
1320;SDS011;653;51.480;11.992;2023-04-12T02:21:44;7.57;;;5.40;;
1320;SDS011;653;51.480;11.992;2023-04-12T02:24:11;9.70;;;5.93;;
1320;SDS011;653;51.480;11.992;2023-04-12T02:26:38;7.67;;;5.77;;
1320;SDS011;653;51.480;11.992;2023-04-12T02:29:05;7.00;;;5.07;;
1320;SDS011;653;51.480;11.992;2023-04-12T02:31:35;9.93;;;5.57;;
1320;SDS011;653;51.480;11.992;2023-04-12T02:34:04;9.13;;;5.20;;
1320;SDS011;653;51.480;11.992;2023-04-12T02:36:31;7.80;;;5.37;;
1320;SDS011;653;51.480;11.992;2023-04-12T02:39:00;8.00;;;5.13;;
1320;SDS011;653;51.480;11.992;2023-04-12T02:41:27;7.20;;;5.10;;
1320;SDS011;653;51.480;11.992;2023-04-12T02:43:53;8.73;;;5.70;;
1320;SDS011;653;51.480;11.992;2023-04-12T02:46:21;7.60;;;5.57;;
1320;SDS011;653;51.480;11.992;2023-04-12T02:48:47;8.07;;;5.00;;
1320;SDS011;653;51.480;11.992;2023-04-12T02:51:15;7.43;;;5.00;;
1320;SDS011;653;51.480;11.992;2023-04-12T02:53:42;8.00;;;4.50;;
1320;SDS011;653;51.480;11.992;2023-04-12T02:56:09;6.33;;;4.37;;
1320;SDS011;653;51.480;11.992;2023-04-12T02:58:36;7.60;;;4.57;;
1320;SDS011;653;51.480;11.992;2023-04-12T03:01:03;6.60;;;5.33;;
1320;SDS011;653;51.480;11.992;2023-04-12T03:03:33;6.50;;;4.83;;
1320;SDS011;653;51.480;11.992;2023-04-12T03:05:59;7.50;;;4.40;;
1320;SDS011;653;51.480;11.992;2023-04-12T03:08:25;5.60;;;4.60;;
1320;SDS011;653;51.480;11.992;2023-04-12T03:10:50;8.47;;;5.40;;
1320;SDS011;653;51.480;11.992;2023-04-12T03:13:17;6.80;;;5.07;;
1320;SDS011;653;51.480;11.992;2023-04-12T03:15:45;9.70;;;5.40;;
1320;SDS011;653;51.480;11.992;2023-04-12T03:18:13;9.33;;;6.30;;
1320;SDS011;653;51.480;11.992;2023-04-12T03:20:39;6.53;;;4.70;;
1320;SDS011;653;51.480;11.992;2023-04-12T03:23:09;9.50;;;4.67;;
1320;SDS011;653;51.480;11.992;2023-04-12T03:25:34;8.03;;;5.17;;
1320;SDS011;653;51.480;11.992;2023-04-12T03:28:01;7.47;;;4.63;;
1320;SDS011;653;51.480;11.992;2023-04-12T03:30:28;7.00;;;4.97;;
1320;SDS011;653;51.480;11.992;2023-04-12T03:32:55;8.30;;;4.33;;
1320;SDS011;653;51.480;11.992;2023-04-12T03:35:20;8.73;;;5.17;;
1320;SDS011;653;51.480;11.992;2023-04-12T03:37:48;9.80;;;5.43;;
1320;SDS011;653;51.480;11.992;2023-04-12T03:40:13;7.23;;;5.17;;
1320;SDS011;653;51.480;11.992;2023-04-12T03:42:41;8.70;;;5.03;;
1320;SDS011;653;51.480;11.992;2023-04-12T03:45:06;6.90;;;4.67;;
1320;SDS011;653;51.480;11.992;2023-04-12T03:47:33;7.07;;;5.20;;
1320;SDS011;653;51.480;11.992;2023-04-12T03:50:02;6.23;;;5.03;;
1320;SDS011;653;51.480;11.992;2023-04-12T03:52:33;10.00;;;5.60;;
1320;SDS011;653;51.480;11.992;2023-04-12T03:54:58;7.87;;;4.90;;
1320;SDS011;653;51.480;11.992;2023-04-12T03:57:25;9.47;;;5.50;;
1320;SDS011;653;51.480;11.992;2023-04-12T03:59:52;5.57;;;4.60;;
1320;SDS011;653;51.480;11.992;2023-04-12T04:02:19;6.93;;;4.37;;
1320;SDS011;653;51.480;11.992;2023-04-12T04:04:46;7.10;;;4.57;;
1320;SDS011;653;51.480;11.992;2023-04-12T04:07:13;7.07;;;4.33;;
1320;SDS011;653;51.480;11.992;2023-04-12T04:09:38;7.90;;;4.77;;
1320;SDS011;653;51.480;11.992;2023-04-12T04:12:05;6.00;;;4.20;;
1320;SDS011;653;51.480;11.992;2023-04-12T04:14:31;8.27;;;5.10;;
1320;SDS011;653;51.480;11.992;2023-04-12T04:17:00;6.77;;;4.63;;
1320;SDS011;653;51.480;11.992;2023-04-12T04:20:32;6.93;;;3.70;;
1320;SDS011;653;51.480;11.992;2023-04-12T04:22:59;9.47;;;4.03;;
1320;SDS011;653;51.480;11.992;2023-04-12T04:25:25;6.93;;;4.53;;
1320;SDS011;653;51.480;11.992;2023-04-12T04:27:55;4.63;;;3.83;;
1320;SDS011;653;51.480;11.992;2023-04-12T04:30:23;7.00;;;4.03;;
1320;SDS011;653;51.480;11.992;2023-04-12T04:32:49;7.10;;;3.73;;
1320;SDS011;653;51.480;11.992;2023-04-12T04:35:15;9.47;;;3.80;;
1320;SDS011;653;51.480;11.992;2023-04-12T04:37:43;7.13;;;4.10;;
1320;SDS011;653;51.480;11.992;2023-04-12T04:40:10;5.20;;;4.37;;
1320;SDS011;653;51.480;11.992;2023-04-12T04:42:37;6.37;;;4.10;;
1320;SDS011;653;51.480;11.992;2023-04-12T04:45:05;7.67;;;4.30;;
1320;SDS011;653;51.480;11.992;2023-04-12T04:47:42;5.37;;;3.63;;
1320;SDS011;653;51.480;11.992;2023-04-12T04:50:08;6.13;;;3.90;;
1320;SDS011;653;51.480;11.992;2023-04-12T04:52:34;7.27;;;3.87;;
1320;SDS011;653;51.480;11.992;2023-04-12T04:55:03;4.00;;;3.60;;
1320;SDS011;653;51.480;11.992;2023-04-12T04:57:28;4.67;;;3.60;;
1320;SDS011;653;51.480;11.992;2023-04-12T04:59:55;6.33;;;3.90;;
1320;SDS011;653;51.480;11.992;2023-04-12T05:02:20;6.00;;;3.80;;
1320;SDS011;653;51.480;11.992;2023-04-12T05:04:48;5.50;;;3.17;;
1320;SDS011;653;51.480;11.992;2023-04-12T05:07:13;13.20;;;4.47;;
1320;SDS011;653;51.480;11.992;2023-04-12T05:09:39;10.27;;;4.03;;
1320;SDS011;653;51.480;11.992;2023-04-12T05:12:06;8.80;;;3.30;;
1320;SDS011;653;51.480;11.992;2023-04-12T05:14:33;6.67;;;4.23;;
1320;SDS011;653;51.480;11.992;2023-04-12T05:17:01;7.17;;;3.33;;
1320;SDS011;653;51.480;11.992;2023-04-12T05:19:28;8.13;;;3.50;;
1320;SDS011;653;51.480;11.992;2023-04-12T05:21:55;7.50;;;4.00;;
1320;SDS011;653;51.480;11.992;2023-04-12T05:24:21;6.43;;;3.70;;
1320;SDS011;653;51.480;11.992;2023-04-12T05:26:48;5.57;;;3.43;;
1320;SDS011;653;51.480;11.992;2023-04-12T05:29:17;4.83;;;2.80;;
1320;SDS011;653;51.480;11.992;2023-04-12T05:31:43;5.07;;;4.10;;
1320;SDS011;653;51.480;11.992;2023-04-12T05:34:10;4.23;;;3.40;;
1320;SDS011;653;51.480;11.992;2023-04-12T05:36:36;4.40;;;3.63;;
1320;SDS011;653;51.480;11.992;2023-04-12T05:39:02;5.10;;;3.23;;
1320;SDS011;653;51.480;11.992;2023-04-12T05:41:28;8.20;;;3.33;;
1320;SDS011;653;51.480;11.992;2023-04-12T05:43:55;6.00;;;3.40;;
1320;SDS011;653;51.480;11.992;2023-04-12T05:46:21;10.70;;;3.90;;
1320;SDS011;653;51.480;11.992;2023-04-12T05:48:48;6.73;;;4.33;;
1320;SDS011;653;51.480;11.992;2023-04-12T05:51:15;5.50;;;3.27;;
1320;SDS011;653;51.480;11.992;2023-04-12T05:53:41;4.10;;;3.10;;
1320;SDS011;653;51.480;11.992;2023-04-12T05:56:08;8.10;;;4.07;;
1320;SDS011;653;51.480;11.992;2023-04-12T05:58:33;6.20;;;3.37;;
1320;SDS011;653;51.480;11.992;2023-04-12T06:01:00;5.00;;;3.30;;
1320;SDS011;653;51.480;11.992;2023-04-12T06:03:26;4.90;;;3.57;;
1320;SDS011;653;51.480;11.992;2023-04-12T06:05:56;3.73;;;2.73;;
1320;SDS011;653;51.480;11.992;2023-04-12T06:08:23;6.07;;;3.50;;
1320;SDS011;653;51.480;11.992;2023-04-12T06:10:49;5.80;;;3.50;;
1320;SDS011;653;51.480;11.992;2023-04-12T06:13:16;7.20;;;3.20;;
1320;SDS011;653;51.480;11.992;2023-04-12T06:15:43;6.10;;;3.43;;
1320;SDS011;653;51.480;11.992;2023-04-12T06:18:08;3.57;;;2.50;;
1320;SDS011;653;51.480;11.992;2023-04-12T06:20:37;5.47;;;2.70;;
1320;SDS011;653;51.480;11.992;2023-04-12T06:23:03;5.87;;;3.60;;
1320;SDS011;653;51.480;11.992;2023-04-12T06:25:32;6.90;;;3.60;;
1320;SDS011;653;51.480;11.992;2023-04-12T06:27:59;12.03;;;3.50;;
1320;SDS011;653;51.480;11.992;2023-04-12T06:30:26;11.13;;;4.90;;
1320;SDS011;653;51.480;11.992;2023-04-12T06:32:52;5.17;;;3.60;;
1320;SDS011;653;51.480;11.992;2023-04-12T06:35:19;5.60;;;3.67;;
1320;SDS011;653;51.480;11.992;2023-04-12T06:37:48;4.40;;;3.30;;
1320;SDS011;653;51.480;11.992;2023-04-12T06:40:18;3.77;;;2.87;;
1320;SDS011;653;51.480;11.992;2023-04-12T06:42:45;5.10;;;3.37;;
1320;SDS011;653;51.480;11.992;2023-04-12T06:45:13;5.77;;;3.43;;
1320;SDS011;653;51.480;11.992;2023-04-12T06:47:39;6.63;;;2.53;;
1320;SDS011;653;51.480;11.992;2023-04-12T06:50:06;7.43;;;3.63;;
1320;SDS011;653;51.480;11.992;2023-04-12T06:52:33;3.57;;;2.83;;
1320;SDS011;653;51.480;11.992;2023-04-12T06:55:00;4.63;;;3.37;;
1320;SDS011;653;51.480;11.992;2023-04-12T06:57:27;6.30;;;3.47;;
1320;SDS011;653;51.480;11.992;2023-04-12T06:59:53;5.37;;;3.70;;
1320;SDS011;653;51.480;11.992;2023-04-12T07:02:20;5.90;;;3.43;;
1320;SDS011;653;51.480;11.992;2023-04-12T07:04:45;8.93;;;4.50;;
1320;SDS011;653;51.480;11.992;2023-04-12T07:07:11;14.57;;;3.30;;
1320;SDS011;653;51.480;11.992;2023-04-12T07:09:38;12.70;;;3.60;;
1320;SDS011;653;51.480;11.992;2023-04-12T07:12:04;4.17;;;3.20;;
1320;SDS011;653;51.480;11.992;2023-04-12T07:14:29;5.20;;;3.20;;
1320;SDS011;653;51.480;11.992;2023-04-12T07:16:56;4.63;;;3.37;;
1320;SDS011;653;51.480;11.992;2023-04-12T07:19:21;6.23;;;3.47;;
1320;SDS011;653;51.480;11.992;2023-04-12T07:21:47;5.00;;;2.73;;
1320;SDS011;653;51.480;11.992;2023-04-12T07:24:13;6.60;;;3.43;;
1320;SDS011;653;51.480;11.992;2023-04-12T07:26:40;9.83;;;4.00;;
1320;SDS011;653;51.480;11.992;2023-04-12T07:29:07;5.00;;;3.00;;
1320;SDS011;653;51.480;11.992;2023-04-12T07:31:33;6.10;;;2.80;;
1320;SDS011;653;51.480;11.992;2023-04-12T07:34:02;7.23;;;3.40;;
1320;SDS011;653;51.480;11.992;2023-04-12T07:36:30;5.40;;;3.03;;
1320;SDS011;653;51.480;11.992;2023-04-12T07:38:59;5.30;;;3.37;;
1320;SDS011;653;51.480;11.992;2023-04-12T07:41:24;4.23;;;2.90;;
1320;SDS011;653;51.480;11.992;2023-04-12T07:43:51;5.43;;;3.13;;
1320;SDS011;653;51.480;11.992;2023-04-12T07:46:17;4.87;;;3.37;;
1320;SDS011;653;51.480;11.992;2023-04-12T07:48:43;6.83;;;2.67;;
1320;SDS011;653;51.480;11.992;2023-04-12T07:51:09;5.60;;;3.23;;
1320;SDS011;653;51.480;11.992;2023-04-12T07:53:35;9.83;;;3.27;;
1320;SDS011;653;51.480;11.992;2023-04-12T07:56:00;5.13;;;3.20;;
1320;SDS011;653;51.480;11.992;2023-04-12T07:58:32;3.87;;;2.60;;
1320;SDS011;653;51.480;11.992;2023-04-12T08:01:00;4.57;;;2.93;;
1320;SDS011;653;51.480;11.992;2023-04-12T08:03:26;5.90;;;3.40;;
1320;SDS011;653;51.480;11.992;2023-04-12T08:05:53;7.03;;;3.50;;
1320;SDS011;653;51.480;11.992;2023-04-12T08:08:19;5.30;;;3.37;;
1320;SDS011;653;51.480;11.992;2023-04-12T08:10:48;7.93;;;3.07;;
1320;SDS011;653;51.480;11.992;2023-04-12T08:13:14;8.60;;;4.07;;
1320;SDS011;653;51.480;11.992;2023-04-12T08:15:41;3.97;;;2.87;;
1320;SDS011;653;51.480;11.992;2023-04-12T08:18:09;6.97;;;3.87;;
1320;SDS011;653;51.480;11.992;2023-04-12T08:20:58;6.83;;;3.80;;
1320;SDS011;653;51.480;11.992;2023-04-12T08:23:24;5.13;;;3.00;;
1320;SDS011;653;51.480;11.992;2023-04-12T08:25:51;5.50;;;3.60;;
1320;SDS011;653;51.480;11.992;2023-04-12T08:28:39;7.47;;;3.63;;
1320;SDS011;653;51.480;11.992;2023-04-12T08:31:06;8.40;;;3.20;;
1320;SDS011;653;51.480;11.992;2023-04-12T08:33:32;4.23;;;2.70;;
1320;SDS011;653;51.480;11.992;2023-04-12T08:35:59;9.87;;;3.10;;
1320;SDS011;653;51.480;11.992;2023-04-12T08:38:25;5.17;;;3.13;;
1320;SDS011;653;51.480;11.992;2023-04-12T08:40:54;4.33;;;3.07;;
1320;SDS011;653;51.480;11.992;2023-04-12T08:43:21;6.50;;;3.50;;
1320;SDS011;653;51.480;11.992;2023-04-12T08:45:47;9.17;;;4.70;;
1320;SDS011;653;51.480;11.992;2023-04-12T08:48:14;3.90;;;2.80;;
1320;SDS011;653;51.480;11.992;2023-04-12T08:50:43;5.60;;;3.87;;
1320;SDS011;653;51.480;11.992;2023-04-12T08:53:11;3.73;;;2.97;;
1320;SDS011;653;51.480;11.992;2023-04-12T08:55:41;7.00;;;3.23;;
1320;SDS011;653;51.480;11.992;2023-04-12T08:58:15;6.17;;;3.17;;
1320;SDS011;653;51.480;11.992;2023-04-12T09:00:43;5.80;;;2.90;;
1320;SDS011;653;51.480;11.992;2023-04-12T09:03:12;4.27;;;3.60;;
1320;SDS011;653;51.480;11.992;2023-04-12T09:05:39;5.00;;;3.20;;
1320;SDS011;653;51.480;11.992;2023-04-12T09:08:06;3.50;;;2.90;;
1320;SDS011;653;51.480;11.992;2023-04-12T09:10:34;4.50;;;3.70;;
1320;SDS011;653;51.480;11.992;2023-04-12T09:13:01;5.07;;;3.70;;
1320;SDS011;653;51.480;11.992;2023-04-12T09:15:30;8.60;;;3.80;;
1320;SDS011;653;51.480;11.992;2023-04-12T09:18:09;3.60;;;3.30;;
1320;SDS011;653;51.480;11.992;2023-04-12T09:20:36;5.40;;;3.10;;
1320;SDS011;653;51.480;11.992;2023-04-12T09:23:19;6.60;;;3.73;;
1320;SDS011;653;51.480;11.992;2023-04-12T09:26:02;5.57;;;3.07;;
1320;SDS011;653;51.480;11.992;2023-04-12T09:28:28;9.20;;;3.57;;
1320;SDS011;653;51.480;11.992;2023-04-12T09:30:56;8.53;;;4.23;;
1320;SDS011;653;51.480;11.992;2023-04-12T09:33:34;4.07;;;3.60;;
1320;SDS011;653;51.480;11.992;2023-04-12T09:36:04;9.33;;;3.03;;
1320;SDS011;653;51.480;11.992;2023-04-12T09:38:35;7.40;;;4.30;;
1320;SDS011;653;51.480;11.992;2023-04-12T09:41:19;4.60;;;3.10;;
1320;SDS011;653;51.480;11.992;2023-04-12T09:43:49;3.70;;;2.90;;
1320;SDS011;653;51.480;11.992;2023-04-12T09:46:15;7.80;;;2.77;;
1320;SDS011;653;51.480;11.992;2023-04-12T09:49:03;4.20;;;2.60;;
1320;SDS011;653;51.480;11.992;2023-04-12T09:51:31;3.47;;;3.03;;
1320;SDS011;653;51.480;11.992;2023-04-12T09:54:02;3.97;;;2.87;;
1320;SDS011;653;51.480;11.992;2023-04-12T09:56:29;4.93;;;2.97;;
1320;SDS011;653;51.480;11.992;2023-04-12T09:59:01;4.57;;;2.60;;
1320;SDS011;653;51.480;11.992;2023-04-12T10:01:28;2.90;;;2.47;;
1320;SDS011;653;51.480;11.992;2023-04-12T10:03:59;4.93;;;3.30;;
1320;SDS011;653;51.480;11.992;2023-04-12T10:06:25;4.70;;;2.70;;
1320;SDS011;653;51.480;11.992;2023-04-12T10:08:53;3.30;;;2.47;;
1320;SDS011;653;51.480;11.992;2023-04-12T10:11:19;4.63;;;3.30;;
1320;SDS011;653;51.480;11.992;2023-04-12T10:13:47;8.00;;;3.10;;
1320;SDS011;653;51.480;11.992;2023-04-12T10:16:15;6.30;;;3.20;;
1320;SDS011;653;51.480;11.992;2023-04-12T10:18:40;3.40;;;2.80;;
1320;SDS011;653;51.480;11.992;2023-04-12T10:21:09;7.73;;;3.10;;
1320;SDS011;653;51.480;11.992;2023-04-12T10:23:37;4.97;;;2.87;;
1320;SDS011;653;51.480;11.992;2023-04-12T10:26:04;5.13;;;3.00;;
1320;SDS011;653;51.480;11.992;2023-04-12T10:28:31;5.20;;;3.17;;
1320;SDS011;653;51.480;11.992;2023-04-12T10:30:57;5.97;;;3.23;;
1320;SDS011;653;51.480;11.992;2023-04-12T10:33:29;2.90;;;2.60;;
1320;SDS011;653;51.480;11.992;2023-04-12T10:35:58;5.50;;;2.93;;
1320;SDS011;653;51.480;11.992;2023-04-12T10:38:30;5.90;;;2.83;;
1320;SDS011;653;51.480;11.992;2023-04-12T10:41:16;3.40;;;3.10;;
1320;SDS011;653;51.480;11.992;2023-04-12T10:43:44;3.70;;;3.07;;
1320;SDS011;653;51.480;11.992;2023-04-12T10:49:12;5.27;;;3.27;;
1320;SDS011;653;51.480;11.992;2023-04-12T10:52:24;3.63;;;2.93;;
1320;SDS011;653;51.480;11.992;2023-04-12T10:54:37;2.90;;;2.60;;
1320;SDS011;653;51.480;11.992;2023-04-12T10:57:06;3.23;;;2.93;;
1320;SDS011;653;51.480;11.992;2023-04-12T11:02:22;3.10;;;2.90;;
1320;SDS011;653;51.480;11.992;2023-04-12T11:07:39;3.27;;;2.77;;
1320;SDS011;653;51.480;11.992;2023-04-12T11:10:15;6.97;;;2.97;;
1320;SDS011;653;51.480;11.992;2023-04-12T11:12:48;5.53;;;4.93;;
1320;SDS011;653;51.480;11.992;2023-04-12T11:15:14;9.60;;;6.07;;
1320;SDS011;653;51.480;11.992;2023-04-12T11:17:41;4.83;;;3.17;;
1320;SDS011;653;51.480;11.992;2023-04-12T11:20:19;3.77;;;3.47;;
1320;SDS011;653;51.480;11.992;2023-04-12T11:22:45;3.90;;;3.20;;
1320;SDS011;653;51.480;11.992;2023-04-12T11:25:15;5.67;;;2.97;;
1320;SDS011;653;51.480;11.992;2023-04-12T11:27:48;4.50;;;3.30;;
1320;SDS011;653;51.480;11.992;2023-04-12T11:30:16;7.30;;;3.90;;
1320;SDS011;653;51.480;11.992;2023-04-12T11:32:45;4.53;;;3.27;;
1320;SDS011;653;51.480;11.992;2023-04-12T11:35:13;6.03;;;3.23;;
1320;SDS011;653;51.480;11.992;2023-04-12T11:37:40;6.33;;;3.40;;
1320;SDS011;653;51.480;11.992;2023-04-12T11:40:05;5.67;;;2.90;;
1320;SDS011;653;51.480;11.992;2023-04-12T11:42:33;4.07;;;3.20;;
1320;SDS011;653;51.480;11.992;2023-04-12T11:45:00;3.60;;;3.30;;
1320;SDS011;653;51.480;11.992;2023-04-12T11:47:30;8.23;;;4.17;;
1320;SDS011;653;51.480;11.992;2023-04-12T11:49:57;6.73;;;5.47;;
1320;SDS011;653;51.480;11.992;2023-04-12T11:52:31;8.67;;;5.03;;
1320;SDS011;653;51.480;11.992;2023-04-12T11:55:04;5.57;;;3.20;;
1320;SDS011;653;51.480;11.992;2023-04-12T11:57:36;3.63;;;2.80;;
1320;SDS011;653;51.480;11.992;2023-04-12T12:00:04;12.87;;;4.00;;
1320;SDS011;653;51.480;11.992;2023-04-12T12:02:32;5.77;;;3.40;;
1320;SDS011;653;51.480;11.992;2023-04-12T12:05:00;3.00;;;2.70;;
1320;SDS011;653;51.480;11.992;2023-04-12T12:07:25;3.57;;;2.60;;
1320;SDS011;653;51.480;11.992;2023-04-12T12:09:52;8.23;;;5.47;;
1320;SDS011;653;51.480;11.992;2023-04-12T12:12:18;4.20;;;2.93;;
1320;SDS011;653;51.480;11.992;2023-04-12T12:14:45;4.97;;;2.27;;
1320;SDS011;653;51.480;11.992;2023-04-12T12:17:14;2.70;;;2.10;;
1320;SDS011;653;51.480;11.992;2023-04-12T12:19:43;4.60;;;2.07;;
1320;SDS011;653;51.480;11.992;2023-04-12T12:22:20;4.30;;;2.40;;
1320;SDS011;653;51.480;11.992;2023-04-12T12:24:59;3.33;;;2.00;;
1320;SDS011;653;51.480;11.992;2023-04-12T12:27:38;3.80;;;2.20;;
1320;SDS011;653;51.480;11.992;2023-04-12T12:30:09;6.10;;;2.80;;
1320;SDS011;653;51.480;11.992;2023-04-12T12:32:38;3.50;;;2.30;;
1320;SDS011;653;51.480;11.992;2023-04-12T12:35:09;4.03;;;2.70;;
1320;SDS011;653;51.480;11.992;2023-04-12T12:37:36;4.40;;;2.30;;
1320;SDS011;653;51.480;11.992;2023-04-12T12:40:09;2.93;;;1.93;;
1320;SDS011;653;51.480;11.992;2023-04-12T12:42:51;2.90;;;2.57;;
1320;SDS011;653;51.480;11.992;2023-04-12T12:45:25;3.60;;;2.10;;
1320;SDS011;653;51.480;11.992;2023-04-12T12:47:54;5.40;;;2.37;;
1320;SDS011;653;51.480;11.992;2023-04-12T12:50:25;2.90;;;2.10;;
1320;SDS011;653;51.480;11.992;2023-04-12T12:52:54;3.40;;;2.37;;
1320;SDS011;653;51.480;11.992;2023-04-12T12:55:21;6.30;;;2.50;;
1320;SDS011;653;51.480;11.992;2023-04-12T12:57:52;3.77;;;2.63;;
1320;SDS011;653;51.480;11.992;2023-04-12T13:00:22;6.90;;;4.00;;
1320;SDS011;653;51.480;11.992;2023-04-12T13:02:49;5.83;;;3.83;;
1320;SDS011;653;51.480;11.992;2023-04-12T13:05:16;3.47;;;3.10;;
1320;SDS011;653;51.480;11.992;2023-04-12T13:07:42;5.77;;;3.30;;
1320;SDS011;653;51.480;11.992;2023-04-12T13:10:09;3.93;;;2.70;;
1320;SDS011;653;51.480;11.992;2023-04-12T13:12:36;4.20;;;2.30;;
1320;SDS011;653;51.480;11.992;2023-04-12T13:15:03;2.83;;;2.50;;
1320;SDS011;653;51.480;11.992;2023-04-12T13:17:29;3.40;;;2.70;;
1320;SDS011;653;51.480;11.992;2023-04-12T13:19:56;4.37;;;2.90;;
1320;SDS011;653;51.480;11.992;2023-04-12T13:22:23;4.40;;;2.47;;
1320;SDS011;653;51.480;11.992;2023-04-12T13:24:50;3.23;;;2.30;;
1320;SDS011;653;51.480;11.992;2023-04-12T13:27:16;3.80;;;2.60;;
1320;SDS011;653;51.480;11.992;2023-04-12T13:29:43;4.27;;;2.80;;
1320;SDS011;653;51.480;11.992;2023-04-12T13:32:11;2.90;;;2.70;;
1320;SDS011;653;51.480;11.992;2023-04-12T13:34:39;5.47;;;2.60;;
1320;SDS011;653;51.480;11.992;2023-04-12T13:37:05;4.37;;;2.97;;
1320;SDS011;653;51.480;11.992;2023-04-12T13:39:33;3.67;;;3.27;;
1320;SDS011;653;51.480;11.992;2023-04-12T13:42:00;3.50;;;2.90;;
1320;SDS011;653;51.480;11.992;2023-04-12T13:44:26;3.20;;;2.80;;
1320;SDS011;653;51.480;11.992;2023-04-12T13:46:53;4.00;;;3.60;;
1320;SDS011;653;51.480;11.992;2023-04-12T13:49:20;5.03;;;3.50;;
1320;SDS011;653;51.480;11.992;2023-04-12T13:51:47;4.60;;;3.80;;
1320;SDS011;653;51.480;11.992;2023-04-12T13:54:14;5.53;;;4.23;;
1320;SDS011;653;51.480;11.992;2023-04-12T13:56:41;5.73;;;3.60;;
1320;SDS011;653;51.480;11.992;2023-04-12T13:59:08;5.10;;;3.60;;
1320;SDS011;653;51.480;11.992;2023-04-12T14:01:39;4.20;;;3.27;;
1320;SDS011;653;51.480;11.992;2023-04-12T14:04:06;7.47;;;4.80;;
1320;SDS011;653;51.480;11.992;2023-04-12T14:06:33;6.77;;;4.27;;
1320;SDS011;653;51.480;11.992;2023-04-12T14:08:59;4.50;;;3.40;;
1320;SDS011;653;51.480;11.992;2023-04-12T14:11:25;4.93;;;3.60;;
1320;SDS011;653;51.480;11.992;2023-04-12T14:13:52;4.63;;;3.23;;
1320;SDS011;653;51.480;11.992;2023-04-12T14:16:22;4.77;;;3.20;;
1320;SDS011;653;51.480;11.992;2023-04-12T14:18:49;6.20;;;3.57;;
1320;SDS011;653;51.480;11.992;2023-04-12T14:21:17;5.50;;;3.90;;
1320;SDS011;653;51.480;11.992;2023-04-12T14:23:44;6.73;;;3.47;;
1320;SDS011;653;51.480;11.992;2023-04-12T14:26:14;6.80;;;3.70;;
1320;SDS011;653;51.480;11.992;2023-04-12T14:28:41;4.67;;;3.30;;
1320;SDS011;653;51.480;11.992;2023-04-12T14:31:07;6.37;;;3.53;;
1320;SDS011;653;51.480;11.992;2023-04-12T14:33:34;4.67;;;3.00;;
1320;SDS011;653;51.480;11.992;2023-04-12T14:36:00;5.13;;;3.30;;
1320;SDS011;653;51.480;11.992;2023-04-12T14:38:29;4.70;;;3.53;;
1320;SDS011;653;51.480;11.992;2023-04-12T14:40:56;5.37;;;3.20;;
1320;SDS011;653;51.480;11.992;2023-04-12T14:43:23;4.37;;;2.93;;
1320;SDS011;653;51.480;11.992;2023-04-12T14:45:50;4.60;;;2.90;;
1320;SDS011;653;51.480;11.992;2023-04-12T14:48:18;3.40;;;3.10;;
1320;SDS011;653;51.480;11.992;2023-04-12T14:50:46;3.33;;;3.03;;
1320;SDS011;653;51.480;11.992;2023-04-12T14:53:11;5.60;;;2.70;;
1320;SDS011;653;51.480;11.992;2023-04-12T14:55:39;3.97;;;3.07;;
1320;SDS011;653;51.480;11.992;2023-04-12T14:58:04;4.90;;;3.10;;
1320;SDS011;653;51.480;11.992;2023-04-12T15:00:32;4.40;;;2.80;;
1320;SDS011;653;51.480;11.992;2023-04-12T15:02:59;4.40;;;2.30;;
1320;SDS011;653;51.480;11.992;2023-04-12T15:05:25;2.80;;;2.50;;
1320;SDS011;653;51.480;11.992;2023-04-12T15:07:52;2.63;;;2.30;;
1320;SDS011;653;51.480;11.992;2023-04-12T15:10:19;3.13;;;2.83;;
1320;SDS011;653;51.480;11.992;2023-04-12T15:12:46;5.23;;;3.27;;
1320;SDS011;653;51.480;11.992;2023-04-12T15:15:13;2.47;;;2.27;;
1320;SDS011;653;51.480;11.992;2023-04-12T15:17:41;6.73;;;3.63;;
1320;SDS011;653;51.480;11.992;2023-04-12T15:20:09;3.47;;;2.90;;
1320;SDS011;653;51.480;11.992;2023-04-12T15:22:41;2.80;;;2.50;;
1320;SDS011;653;51.480;11.992;2023-04-12T15:25:08;5.77;;;3.80;;
1320;SDS011;653;51.480;11.992;2023-04-12T15:27:37;3.83;;;2.90;;
1320;SDS011;653;51.480;11.992;2023-04-12T15:30:04;3.17;;;2.60;;
1320;SDS011;653;51.480;11.992;2023-04-12T15:32:33;4.70;;;3.37;;
1320;SDS011;653;51.480;11.992;2023-04-12T15:35:03;4.23;;;2.60;;
1320;SDS011;653;51.480;11.992;2023-04-12T15:37:33;4.03;;;3.57;;
1320;SDS011;653;51.480;11.992;2023-04-12T15:40:01;4.00;;;2.90;;